sensor_id;sensor_type;location;lat;lon;timestamp;temperature;humidity
32536;DHT22;18974;50.838;4.636;2023-07-08T00:00:13;19.60;99.90
32536;DHT22;18974;50.838;4.636;2023-07-08T00:02:40;19.60;99.90
32536;DHT22;18974;50.838;4.636;2023-07-08T00:05:11;19.60;99.90
32536;DHT22;18974;50.838;4.636;2023-07-08T00:07:38;19.50;99.90
32536;DHT22;18974;50.838;4.636;2023-07-08T00:10:22;19.50;99.90
32536;DHT22;18974;50.838;4.636;2023-07-08T00:12:50;19.40;99.90
32536;DHT22;18974;50.838;4.636;2023-07-08T00:15:21;19.40;99.90
32536;DHT22;18974;50.838;4.636;2023-07-08T00:17:47;19.40;99.90
32536;DHT22;18974;50.838;4.636;2023-07-08T00:20:39;19.30;99.90
32536;DHT22;18974;50.838;4.636;2023-07-08T00:23:04;19.20;99.90
32536;DHT22;18974;50.838;4.636;2023-07-08T00:25:31;19.10;99.90
32536;DHT22;18974;50.838;4.636;2023-07-08T00:27:57;19.00;99.90
32536;DHT22;18974;50.838;4.636;2023-07-08T00:30:28;19.00;99.90
32536;DHT22;18974;50.838;4.636;2023-07-08T00:32:55;19.00;99.90
32536;DHT22;18974;50.838;4.636;2023-07-08T00:37:54;19.00;99.90
32536;DHT22;18974;50.838;4.636;2023-07-08T00:40:27;18.90;99.90
32536;DHT22;18974;50.838;4.636;2023-07-08T00:42:53;18.90;99.90
32536;DHT22;18974;50.838;4.636;2023-07-08T00:48:11;18.80;99.90
32536;DHT22;18974;50.838;4.636;2023-07-08T00:50:37;18.70;99.90
32536;DHT22;18974;50.838;4.636;2023-07-08T00:53:26;18.70;99.90
32536;DHT22;18974;50.838;4.636;2023-07-08T00:55:58;18.70;99.90
32536;DHT22;18974;50.838;4.636;2023-07-08T00:58:29;18.60;99.90
32536;DHT22;18974;50.838;4.636;2023-07-08T01:00:56;18.60;99.90
32536;DHT22;18974;50.838;4.636;2023-07-08T01:03:23;18.60;99.90
32536;DHT22;18974;50.838;4.636;2023-07-08T01:05:50;18.60;99.90
32536;DHT22;18974;50.838;4.636;2023-07-08T01:08:17;18.50;99.90
32536;DHT22;18974;50.838;4.636;2023-07-08T01:10:47;18.50;99.90
32536;DHT22;18974;50.838;4.636;2023-07-08T01:13:15;18.50;99.90
32536;DHT22;18974;50.838;4.636;2023-07-08T01:15:43;18.40;99.90
32536;DHT22;18974;50.838;4.636;2023-07-08T01:18:12;18.40;99.90
32536;DHT22;18974;50.838;4.636;2023-07-08T01:20:42;18.50;99.90
32536;DHT22;18974;50.838;4.636;2023-07-08T01:23:10;18.40;99.90
32536;DHT22;18974;50.838;4.636;2023-07-08T01:25:37;18.40;99.90
32536;DHT22;18974;50.838;4.636;2023-07-08T01:28:03;18.50;99.90
32536;DHT22;18974;50.838;4.636;2023-07-08T01:30:29;18.40;99.90
32536;DHT22;18974;50.838;4.636;2023-07-08T01:32:59;18.50;99.90
32536;DHT22;18974;50.838;4.636;2023-07-08T01:35:26;18.60;99.90
32536;DHT22;18974;50.838;4.636;2023-07-08T01:37:56;18.50;99.90
32536;DHT22;18974;50.838;4.636;2023-07-08T01:40:34;18.50;99.90
32536;DHT22;18974;50.838;4.636;2023-07-08T01:43:02;18.40;99.90
32536;DHT22;18974;50.838;4.636;2023-07-08T01:45:32;18.40;99.90
32536;DHT22;18974;50.838;4.636;2023-07-08T01:48:04;18.30;99.90
32536;DHT22;18974;50.838;4.636;2023-07-08T01:50:32;18.30;99.90
32536;DHT22;18974;50.838;4.636;2023-07-08T01:53:02;18.30;99.90
32536;DHT22;18974;50.838;4.636;2023-07-08T01:55:32;18.30;99.90
32536;DHT22;18974;50.838;4.636;2023-07-08T01:57:58;18.20;99.90
32536;DHT22;18974;50.838;4.636;2023-07-08T02:00:23;18.20;99.90
32536;DHT22;18974;50.838;4.636;2023-07-08T02:02:50;18.10;99.90
32536;DHT22;18974;50.838;4.636;2023-07-08T02:05:16;18.20;99.90
32536;DHT22;18974;50.838;4.636;2023-07-08T02:07:42;18.10;99.90
32536;DHT22;18974;50.838;4.636;2023-07-08T02:10:08;18.10;99.90
32536;DHT22;18974;50.838;4.636;2023-07-08T02:12:34;18.00;99.90
32536;DHT22;18974;50.838;4.636;2023-07-08T02:15:00;17.90;99.90
32536;DHT22;18974;50.838;4.636;2023-07-08T02:17:26;17.90;99.90
32536;DHT22;18974;50.838;4.636;2023-07-08T02:19:54;17.90;99.90
32536;DHT22;18974;50.838;4.636;2023-07-08T02:22:20;17.90;99.90
32536;DHT22;18974;50.838;4.636;2023-07-08T02:24:45;17.90;99.90
32536;DHT22;18974;50.838;4.636;2023-07-08T02:27:11;17.90;99.90
32536;DHT22;18974;50.838;4.636;2023-07-08T02:29:37;17.80;99.90
32536;DHT22;18974;50.838;4.636;2023-07-08T02:32:04;17.80;99.90
32536;DHT22;18974;50.838;4.636;2023-07-08T02:34:29;17.70;99.90
32536;DHT22;18974;50.838;4.636;2023-07-08T02:36:55;17.70;99.90
32536;DHT22;18974;50.838;4.636;2023-07-08T02:39:22;17.80;99.90
32536;DHT22;18974;50.838;4.636;2023-07-08T02:41:48;17.70;99.90
32536;DHT22;18974;50.838;4.636;2023-07-08T02:44:13;17.70;99.90
32536;DHT22;18974;50.838;4.636;2023-07-08T02:46:39;17.60;99.90
32536;DHT22;18974;50.838;4.636;2023-07-08T02:49:05;17.50;99.90
32536;DHT22;18974;50.838;4.636;2023-07-08T02:51:31;17.60;99.90
32536;DHT22;18974;50.838;4.636;2023-07-08T02:53:57;17.60;99.90
32536;DHT22;18974;50.838;4.636;2023-07-08T02:56:22;17.70;99.90
32536;DHT22;18974;50.838;4.636;2023-07-08T02:58:49;17.70;99.90
32536;DHT22;18974;50.838;4.636;2023-07-08T03:01:15;17.80;99.90
32536;DHT22;18974;50.838;4.636;2023-07-08T03:03:46;17.90;99.90
32536;DHT22;18974;50.838;4.636;2023-07-08T03:06:13;17.90;99.90
32536;DHT22;18974;50.838;4.636;2023-07-08T03:08:39;17.90;99.90
32536;DHT22;18974;50.838;4.636;2023-07-08T03:11:06;17.80;99.90
32536;DHT22;18974;50.838;4.636;2023-07-08T03:13:33;17.90;99.90
32536;DHT22;18974;50.838;4.636;2023-07-08T03:16:00;17.90;99.90
32536;DHT22;18974;50.838;4.636;2023-07-08T03:18:27;17.80;99.90
32536;DHT22;18974;50.838;4.636;2023-07-08T03:20:54;17.70;99.90
32536;DHT22;18974;50.838;4.636;2023-07-08T03:23:22;17.70;99.90
32536;DHT22;18974;50.838;4.636;2023-07-08T03:25:47;17.70;99.90
32536;DHT22;18974;50.838;4.636;2023-07-08T03:28:13;17.80;99.90
32536;DHT22;18974;50.838;4.636;2023-07-08T03:30:44;17.90;99.90
32536;DHT22;18974;50.838;4.636;2023-07-08T03:33:11;18.00;99.90
32536;DHT22;18974;50.838;4.636;2023-07-08T03:35:37;17.90;99.90
32536;DHT22;18974;50.838;4.636;2023-07-08T03:38:04;17.80;99.90
32536;DHT22;18974;50.838;4.636;2023-07-08T03:40:30;17.70;99.90
32536;DHT22;18974;50.838;4.636;2023-07-08T03:42:56;17.70;99.90
32536;DHT22;18974;50.838;4.636;2023-07-08T03:45:22;17.60;99.90
32536;DHT22;18974;50.838;4.636;2023-07-08T03:47:48;17.50;99.90
32536;DHT22;18974;50.838;4.636;2023-07-08T03:50:19;17.50;99.90
32536;DHT22;18974;50.838;4.636;2023-07-08T03:52:47;17.50;99.90
32536;DHT22;18974;50.838;4.636;2023-07-08T03:55:13;17.50;99.90
32536;DHT22;18974;50.838;4.636;2023-07-08T03:57:39;17.60;99.90
32536;DHT22;18974;50.838;4.636;2023-07-08T04:00:05;17.60;99.90
32536;DHT22;18974;50.838;4.636;2023-07-08T04:02:38;17.60;99.90
32536;DHT22;18974;50.838;4.636;2023-07-08T04:05:04;17.50;99.90
32536;DHT22;18974;50.838;4.636;2023-07-08T04:07:31;17.60;99.90
32536;DHT22;18974;50.838;4.636;2023-07-08T04:09:56;17.50;99.90
32536;DHT22;18974;50.838;4.636;2023-07-08T04:12:22;17.40;99.90
32536;DHT22;18974;50.838;4.636;2023-07-08T04:14:47;17.50;99.90
32536;DHT22;18974;50.838;4.636;2023-07-08T04:17:14;17.50;99.90
32536;DHT22;18974;50.838;4.636;2023-07-08T04:19:40;17.40;99.90
32536;DHT22;18974;50.838;4.636;2023-07-08T04:22:09;17.50;99.90
32536;DHT22;18974;50.838;4.636;2023-07-08T04:24:35;17.50;99.90
32536;DHT22;18974;50.838;4.636;2023-07-08T04:27:02;17.60;99.90
32536;DHT22;18974;50.838;4.636;2023-07-08T04:29:28;17.60;99.90
32536;DHT22;18974;50.838;4.636;2023-07-08T04:31:54;17.70;99.90
32536;DHT22;18974;50.838;4.636;2023-07-08T04:34:19;17.80;99.90
32536;DHT22;18974;50.838;4.636;2023-07-08T04:36:45;17.80;99.90
32536;DHT22;18974;50.838;4.636;2023-07-08T04:39:11;17.80;99.90
32536;DHT22;18974;50.838;4.636;2023-07-08T04:41:38;17.80;99.90
32536;DHT22;18974;50.838;4.636;2023-07-08T04:44:10;17.80;99.90
32536;DHT22;18974;50.838;4.636;2023-07-08T04:46:46;17.90;99.90
32536;DHT22;18974;50.838;4.636;2023-07-08T04:49:13;17.80;99.90
32536;DHT22;18974;50.838;4.636;2023-07-08T04:51:40;17.80;99.90
32536;DHT22;18974;50.838;4.636;2023-07-08T04:54:06;17.80;99.90
32536;DHT22;18974;50.838;4.636;2023-07-08T04:56:40;17.90;99.90
32536;DHT22;18974;50.838;4.636;2023-07-08T04:59:09;17.90;99.90
32536;DHT22;18974;50.838;4.636;2023-07-08T05:01:35;18.00;99.90
32536;DHT22;18974;50.838;4.636;2023-07-08T05:04:02;18.10;99.90
32536;DHT22;18974;50.838;4.636;2023-07-08T05:06:28;18.20;99.90
32536;DHT22;18974;50.838;4.636;2023-07-08T05:08:54;18.30;99.90
32536;DHT22;18974;50.838;4.636;2023-07-08T05:11:20;18.40;99.90
32536;DHT22;18974;50.838;4.636;2023-07-08T05:13:45;18.50;99.90
32536;DHT22;18974;50.838;4.636;2023-07-08T05:16:11;18.60;99.90
32536;DHT22;18974;50.838;4.636;2023-07-08T05:18:37;18.60;99.90
32536;DHT22;18974;50.838;4.636;2023-07-08T05:21:02;18.70;99.90
32536;DHT22;18974;50.838;4.636;2023-07-08T05:23:28;18.80;99.90
32536;DHT22;18974;50.838;4.636;2023-07-08T05:25:54;18.90;99.90
32536;DHT22;18974;50.838;4.636;2023-07-08T05:28:20;19.00;99.90
32536;DHT22;18974;50.838;4.636;2023-07-08T05:30:53;19.20;99.90
32536;DHT22;18974;50.838;4.636;2023-07-08T05:33:19;19.30;99.90
32536;DHT22;18974;50.838;4.636;2023-07-08T05:35:45;19.40;99.90
32536;DHT22;18974;50.838;4.636;2023-07-08T05:38:11;19.50;99.90
32536;DHT22;18974;50.838;4.636;2023-07-08T05:40:37;19.70;99.90
32536;DHT22;18974;50.838;4.636;2023-07-08T05:43:02;19.90;99.90
32536;DHT22;18974;50.838;4.636;2023-07-08T05:45:28;20.00;99.90
32536;DHT22;18974;50.838;4.636;2023-07-08T05:47:54;20.10;99.90
32536;DHT22;18974;50.838;4.636;2023-07-08T05:50:19;20.20;99.90
32536;DHT22;18974;50.838;4.636;2023-07-08T05:52:45;20.30;99.90
32536;DHT22;18974;50.838;4.636;2023-07-08T05:55:10;20.40;99.90
32536;DHT22;18974;50.838;4.636;2023-07-08T05:57:36;20.40;99.90
32536;DHT22;18974;50.838;4.636;2023-07-08T06:00:03;20.50;99.90
32536;DHT22;18974;50.838;4.636;2023-07-08T06:02:28;20.70;99.90
32536;DHT22;18974;50.838;4.636;2023-07-08T06:04:54;20.80;99.90
32536;DHT22;18974;50.838;4.636;2023-07-08T06:07:20;20.90;99.90
32536;DHT22;18974;50.838;4.636;2023-07-08T06:09:45;20.90;99.90
32536;DHT22;18974;50.838;4.636;2023-07-08T06:12:11;21.00;99.90
32536;DHT22;18974;50.838;4.636;2023-07-08T06:14:37;21.10;99.90
32536;DHT22;18974;50.838;4.636;2023-07-08T06:17:04;21.30;99.90
32536;DHT22;18974;50.838;4.636;2023-07-08T06:19:30;21.40;99.90
32536;DHT22;18974;50.838;4.636;2023-07-08T06:21:55;21.50;99.90
32536;DHT22;18974;50.838;4.636;2023-07-08T06:24:21;21.70;99.90
32536;DHT22;18974;50.838;4.636;2023-07-08T06:26:47;21.80;99.90
32536;DHT22;18974;50.838;4.636;2023-07-08T06:29:12;21.90;99.90
32536;DHT22;18974;50.838;4.636;2023-07-08T06:31:38;22.10;99.90
32536;DHT22;18974;50.838;4.636;2023-07-08T06:34:04;22.20;99.90
32536;DHT22;18974;50.838;4.636;2023-07-08T06:36:30;22.30;99.90
32536;DHT22;18974;50.838;4.636;2023-07-08T06:38:55;22.50;99.90
32536;DHT22;18974;50.838;4.636;2023-07-08T06:41:21;22.60;99.90
32536;DHT22;18974;50.838;4.636;2023-07-08T06:43:47;22.80;99.90
32536;DHT22;18974;50.838;4.636;2023-07-08T06:46:13;22.80;99.90
32536;DHT22;18974;50.838;4.636;2023-07-08T06:48:39;22.90;99.90
32536;DHT22;18974;50.838;4.636;2023-07-08T06:51:06;23.10;99.90
32536;DHT22;18974;50.838;4.636;2023-07-08T06:53:31;23.30;99.90
32536;DHT22;18974;50.838;4.636;2023-07-08T06:55:57;23.40;99.90
32536;DHT22;18974;50.838;4.636;2023-07-08T06:58:23;23.50;99.90
32536;DHT22;18974;50.838;4.636;2023-07-08T07:00:48;23.50;99.90
32536;DHT22;18974;50.838;4.636;2023-07-08T07:03:14;23.60;99.90
32536;DHT22;18974;50.838;4.636;2023-07-08T07:05:40;23.80;99.90
32536;DHT22;18974;50.838;4.636;2023-07-08T07:08:06;23.90;99.90
32536;DHT22;18974;50.838;4.636;2023-07-08T07:10:33;24.00;99.90
32536;DHT22;18974;50.838;4.636;2023-07-08T07:12:59;24.20;99.90
32536;DHT22;18974;50.838;4.636;2023-07-08T07:15:25;24.30;99.90
32536;DHT22;18974;50.838;4.636;2023-07-08T07:17:50;24.40;99.90
32536;DHT22;18974;50.838;4.636;2023-07-08T07:20:16;24.50;99.90
32536;DHT22;18974;50.838;4.636;2023-07-08T07:22:42;24.70;99.90
32536;DHT22;18974;50.838;4.636;2023-07-08T07:25:08;24.90;99.90
32536;DHT22;18974;50.838;4.636;2023-07-08T07:27:34;25.10;99.90
32536;DHT22;18974;50.838;4.636;2023-07-08T07:29:59;25.20;99.90
32536;DHT22;18974;50.838;4.636;2023-07-08T07:32:26;25.30;99.90
32536;DHT22;18974;50.838;4.636;2023-07-08T07:34:52;25.40;99.90
32536;DHT22;18974;50.838;4.636;2023-07-08T07:37:20;25.60;99.90
32536;DHT22;18974;50.838;4.636;2023-07-08T07:39:46;25.70;99.90
32536;DHT22;18974;50.838;4.636;2023-07-08T07:42:14;25.80;99.90
32536;DHT22;18974;50.838;4.636;2023-07-08T07:44:40;26.00;99.90
32536;DHT22;18974;50.838;4.636;2023-07-08T07:47:07;26.10;99.90
32536;DHT22;18974;50.838;4.636;2023-07-08T07:49:33;26.20;99.90
32536;DHT22;18974;50.838;4.636;2023-07-08T07:51:59;26.30;99.90
32536;DHT22;18974;50.838;4.636;2023-07-08T07:54:24;26.40;99.90
32536;DHT22;18974;50.838;4.636;2023-07-08T07:56:51;26.50;99.90
32536;DHT22;18974;50.838;4.636;2023-07-08T07:59:16;26.60;99.90
32536;DHT22;18974;50.838;4.636;2023-07-08T08:01:42;26.60;99.90
32536;DHT22;18974;50.838;4.636;2023-07-08T08:04:09;26.70;99.90
32536;DHT22;18974;50.838;4.636;2023-07-08T08:06:35;26.90;99.90
32536;DHT22;18974;50.838;4.636;2023-07-08T08:09:00;27.00;99.90
32536;DHT22;18974;50.838;4.636;2023-07-08T08:11:26;27.20;99.90
32536;DHT22;18974;50.838;4.636;2023-07-08T08:13:53;27.30;99.90
32536;DHT22;18974;50.838;4.636;2023-07-08T08:16:19;27.40;99.90
32536;DHT22;18974;50.838;4.636;2023-07-08T08:18:45;27.50;99.90
32536;DHT22;18974;50.838;4.636;2023-07-08T08:21:11;27.60;99.90
32536;DHT22;18974;50.838;4.636;2023-07-08T08:23:36;27.50;99.90
32536;DHT22;18974;50.838;4.636;2023-07-08T08:26:02;27.60;99.90
32536;DHT22;18974;50.838;4.636;2023-07-08T08:28:28;27.70;99.90
32536;DHT22;18974;50.838;4.636;2023-07-08T08:30:54;27.70;99.90
32536;DHT22;18974;50.838;4.636;2023-07-08T08:33:20;27.90;99.90
32536;DHT22;18974;50.838;4.636;2023-07-08T08:35:46;27.90;99.90
32536;DHT22;18974;50.838;4.636;2023-07-08T08:38:12;28.00;99.90
32536;DHT22;18974;50.838;4.636;2023-07-08T08:40:40;28.00;99.90
32536;DHT22;18974;50.838;4.636;2023-07-08T08:43:11;28.00;99.90
32536;DHT22;18974;50.838;4.636;2023-07-08T08:48:24;28.20;99.90
32536;DHT22;18974;50.838;4.636;2023-07-08T08:50:58;28.30;99.90
32536;DHT22;18974;50.838;4.636;2023-07-08T08:53:27;28.50;99.40
32536;DHT22;18974;50.838;4.636;2023-07-08T08:56:04;28.60;99.60
32536;DHT22;18974;50.838;4.636;2023-07-08T08:58:41;28.80;99.50
32536;DHT22;18974;50.838;4.636;2023-07-08T09:01:11;29.00;99.00
32536;DHT22;18974;50.838;4.636;2023-07-08T09:03:53;29.20;98.90
32536;DHT22;18974;50.838;4.636;2023-07-08T09:06:24;29.40;98.90
32536;DHT22;18974;50.838;4.636;2023-07-08T09:08:51;29.50;97.50
32536;DHT22;18974;50.838;4.636;2023-07-08T09:13:53;29.80;96.30
32536;DHT22;18974;50.838;4.636;2023-07-08T09:16:47;29.90;96.90
32536;DHT22;18974;50.838;4.636;2023-07-08T09:19:26;30.10;96.60
32536;DHT22;18974;50.838;4.636;2023-07-08T09:24:59;30.40;95.50
32536;DHT22;18974;50.838;4.636;2023-07-08T09:27:27;30.40;95.10
32536;DHT22;18974;50.838;4.636;2023-07-08T09:29:53;30.50;95.90
32536;DHT22;18974;50.838;4.636;2023-07-08T09:32:22;30.50;95.40
32536;DHT22;18974;50.838;4.636;2023-07-08T09:34:53;30.50;95.00
32536;DHT22;18974;50.838;4.636;2023-07-08T09:37:35;30.60;95.00
32536;DHT22;18974;50.838;4.636;2023-07-08T09:40:15;30.70;96.20
32536;DHT22;18974;50.838;4.636;2023-07-08T09:42:42;30.90;96.60
32536;DHT22;18974;50.838;4.636;2023-07-08T09:45:15;31.00;93.20
32536;DHT22;18974;50.838;4.636;2023-07-08T09:47:43;31.10;93.30
32536;DHT22;18974;50.838;4.636;2023-07-08T09:52:48;31.10;92.80
32536;DHT22;18974;50.838;4.636;2023-07-08T09:55:14;31.10;91.90
32536;DHT22;18974;50.838;4.636;2023-07-08T09:57:40;31.20;92.70
32536;DHT22;18974;50.838;4.636;2023-07-08T10:00:12;31.40;93.60
32536;DHT22;18974;50.838;4.636;2023-07-08T10:02:40;31.40;92.50
32536;DHT22;18974;50.838;4.636;2023-07-08T10:07:45;31.70;93.30
32536;DHT22;18974;50.838;4.636;2023-07-08T10:10:16;31.80;92.80
32536;DHT22;18974;50.838;4.636;2023-07-08T10:12:57;32.00;93.00
32536;DHT22;18974;50.838;4.636;2023-07-08T10:17:54;32.20;93.10
32536;DHT22;18974;50.838;4.636;2023-07-08T10:20:21;32.30;92.50
32536;DHT22;18974;50.838;4.636;2023-07-08T10:23:42;32.50;92.20
32536;DHT22;18974;50.838;4.636;2023-07-08T10:25:53;32.50;92.00
32536;DHT22;18974;50.838;4.636;2023-07-08T10:28:28;32.40;92.50
32536;DHT22;18974;50.838;4.636;2023-07-08T10:30:59;32.40;92.20
32536;DHT22;18974;50.838;4.636;2023-07-08T10:33:52;32.40;92.10
32536;DHT22;18974;50.838;4.636;2023-07-08T10:36:44;32.50;92.10
32536;DHT22;18974;50.838;4.636;2023-07-08T10:45:40;32.90;91.50
32536;DHT22;18974;50.838;4.636;2023-07-08T10:48:21;32.70;91.90
32536;DHT22;18974;50.838;4.636;2023-07-08T10:56:28;32.90;90.20
32536;DHT22;18974;50.838;4.636;2023-07-08T11:02:02;33.20;91.80
32536;DHT22;18974;50.838;4.636;2023-07-08T11:05:09;33.30;88.20
32536;DHT22;18974;50.838;4.636;2023-07-08T11:07:48;33.40;87.60
32536;DHT22;18974;50.838;4.636;2023-07-08T11:10:28;33.40;87.10
32536;DHT22;18974;50.838;4.636;2023-07-08T11:13:09;33.40;88.80
32536;DHT22;18974;50.838;4.636;2023-07-08T11:23:37;33.80;85.80
32536;DHT22;18974;50.838;4.636;2023-07-08T11:29:00;34.00;88.40
32536;DHT22;18974;50.838;4.636;2023-07-08T11:31:28;33.90;85.60
32536;DHT22;18974;50.838;4.636;2023-07-08T11:33:57;33.70;84.40
32536;DHT22;18974;50.838;4.636;2023-07-08T11:36:23;33.60;86.20
32536;DHT22;18974;50.838;4.636;2023-07-08T11:38:53;33.80;89.70
32536;DHT22;18974;50.838;4.636;2023-07-08T11:41:21;34.10;91.00
32536;DHT22;18974;50.838;4.636;2023-07-08T11:44:04;34.30;88.70
32536;DHT22;18974;50.838;4.636;2023-07-08T11:46:32;34.40;86.50
32536;DHT22;18974;50.838;4.636;2023-07-08T11:49:09;34.40;86.70
32536;DHT22;18974;50.838;4.636;2023-07-08T11:51:39;34.40;85.40
32536;DHT22;18974;50.838;4.636;2023-07-08T11:56:59;34.60;88.60
32536;DHT22;18974;50.838;4.636;2023-07-08T11:59:30;34.70;89.20
32536;DHT22;18974;50.838;4.636;2023-07-08T12:02:17;34.90;87.40
32536;DHT22;18974;50.838;4.636;2023-07-08T12:05:10;35.10;86.70
32536;DHT22;18974;50.838;4.636;2023-07-08T12:07:47;35.20;83.30
32536;DHT22;18974;50.838;4.636;2023-07-08T12:10:27;35.00;85.60
32536;DHT22;18974;50.838;4.636;2023-07-08T12:12:53;35.10;87.00
32536;DHT22;18974;50.838;4.636;2023-07-08T12:15:28;35.20;86.80
32536;DHT22;18974;50.838;4.636;2023-07-08T12:18:06;35.10;83.60
32536;DHT22;18974;50.838;4.636;2023-07-08T12:20:39;35.20;86.10
32536;DHT22;18974;50.838;4.636;2023-07-08T12:23:17;35.40;86.70
32536;DHT22;18974;50.838;4.636;2023-07-08T12:25:43;35.50;84.70
32536;DHT22;18974;50.838;4.636;2023-07-08T12:28:10;35.50;82.60
32536;DHT22;18974;50.838;4.636;2023-07-08T12:30:38;35.50;82.30
32536;DHT22;18974;50.838;4.636;2023-07-08T12:33:11;35.60;82.80
32536;DHT22;18974;50.838;4.636;2023-07-08T12:35:38;35.30;81.70
32536;DHT22;18974;50.838;4.636;2023-07-08T12:40:41;34.40;83.20
32536;DHT22;18974;50.838;4.636;2023-07-08T12:43:09;34.10;88.10
32536;DHT22;18974;50.838;4.636;2023-07-08T12:45:36;33.80;88.20
32536;DHT22;18974;50.838;4.636;2023-07-08T12:48:03;33.10;87.30
32536;DHT22;18974;50.838;4.636;2023-07-08T12:50:28;32.20;90.60
32536;DHT22;18974;50.838;4.636;2023-07-08T12:52:54;31.20;91.90
32536;DHT22;18974;50.838;4.636;2023-07-08T12:55:22;30.40;93.20
32536;DHT22;18974;50.838;4.636;2023-07-08T12:57:50;29.40;93.40
32536;DHT22;18974;50.838;4.636;2023-07-08T13:00:26;28.60;93.20
32536;DHT22;18974;50.838;4.636;2023-07-08T13:02:58;28.30;93.40
32536;DHT22;18974;50.838;4.636;2023-07-08T13:05:25;28.00;93.50
32536;DHT22;18974;50.838;4.636;2023-07-08T13:07:51;27.60;94.20
32536;DHT22;18974;50.838;4.636;2023-07-08T13:10:20;27.10;95.70
32536;DHT22;18974;50.838;4.636;2023-07-08T13:12:48;26.50;98.00
32536;DHT22;18974;50.838;4.636;2023-07-08T13:15:23;26.00;98.80
32536;DHT22;18974;50.838;4.636;2023-07-08T13:17:50;25.70;99.80
32536;DHT22;18974;50.838;4.636;2023-07-08T13:20:16;25.40;99.90
32536;DHT22;18974;50.838;4.636;2023-07-08T13:22:45;25.10;99.90
32536;DHT22;18974;50.838;4.636;2023-07-08T13:25:17;24.80;99.90
32536;DHT22;18974;50.838;4.636;2023-07-08T13:27:55;24.40;99.90
32536;DHT22;18974;50.838;4.636;2023-07-08T13:30:24;24.00;99.90
32536;DHT22;18974;50.838;4.636;2023-07-08T13:32:55;23.90;99.90
32536;DHT22;18974;50.838;4.636;2023-07-08T13:35:38;23.80;99.90
32536;DHT22;18974;50.838;4.636;2023-07-08T13:38:05;24.20;99.90
32536;DHT22;18974;50.838;4.636;2023-07-08T13:40:31;24.50;99.90
32536;DHT22;18974;50.838;4.636;2023-07-08T13:42:58;25.00;99.90
32536;DHT22;18974;50.838;4.636;2023-07-08T13:45:30;25.70;99.90
32536;DHT22;18974;50.838;4.636;2023-07-08T13:48:10;26.30;99.90
32536;DHT22;18974;50.838;4.636;2023-07-08T13:50:43;26.70;99.90
32536;DHT22;18974;50.838;4.636;2023-07-08T13:53:44;27.20;99.90
32536;DHT22;18974;50.838;4.636;2023-07-08T13:59:05;27.80;99.90
32536;DHT22;18974;50.838;4.636;2023-07-08T14:01:33;28.10;99.90
32536;DHT22;18974;50.838;4.636;2023-07-08T14:04:00;28.20;99.90
32536;DHT22;18974;50.838;4.636;2023-07-08T14:06:31;28.40;99.90
32536;DHT22;18974;50.838;4.636;2023-07-08T14:08:59;28.40;99.90
32536;DHT22;18974;50.838;4.636;2023-07-08T14:11:25;28.50;99.90
32536;DHT22;18974;50.838;4.636;2023-07-08T14:13:51;28.60;99.90
32536;DHT22;18974;50.838;4.636;2023-07-08T14:16:29;28.60;99.90
32536;DHT22;18974;50.838;4.636;2023-07-08T14:18:57;28.70;99.90
32536;DHT22;18974;50.838;4.636;2023-07-08T14:21:23;28.90;99.90
32536;DHT22;18974;50.838;4.636;2023-07-08T14:23:48;29.10;99.90
32536;DHT22;18974;50.838;4.636;2023-07-08T14:26:14;29.50;99.90
32536;DHT22;18974;50.838;4.636;2023-07-08T14:28:40;29.80;99.90
32536;DHT22;18974;50.838;4.636;2023-07-08T14:31:11;30.10;99.90
32536;DHT22;18974;50.838;4.636;2023-07-08T14:33:38;30.40;99.90
32536;DHT22;18974;50.838;4.636;2023-07-08T14:36:11;30.60;99.90
32536;DHT22;18974;50.838;4.636;2023-07-08T14:38:36;30.90;99.90
32536;DHT22;18974;50.838;4.636;2023-07-08T14:41:03;31.10;99.90
32536;DHT22;18974;50.838;4.636;2023-07-08T14:43:30;31.20;99.90
32536;DHT22;18974;50.838;4.636;2023-07-08T14:45:58;31.40;99.90
32536;DHT22;18974;50.838;4.636;2023-07-08T14:48:27;31.50;99.90
32536;DHT22;18974;50.838;4.636;2023-07-08T14:50:52;31.50;99.90
32536;DHT22;18974;50.838;4.636;2023-07-08T14:53:18;31.40;99.90
32536;DHT22;18974;50.838;4.636;2023-07-08T14:55:46;31.20;99.90
32536;DHT22;18974;50.838;4.636;2023-07-08T14:58:27;31.00;99.90
32536;DHT22;18974;50.838;4.636;2023-07-08T15:00:58;30.90;99.90
32536;DHT22;18974;50.838;4.636;2023-07-08T15:03:26;30.70;99.90
32536;DHT22;18974;50.838;4.636;2023-07-08T15:05:52;30.50;99.90
32536;DHT22;18974;50.838;4.636;2023-07-08T15:08:18;30.40;99.90
32536;DHT22;18974;50.838;4.636;2023-07-08T15:10:51;30.40;99.90
32536;DHT22;18974;50.838;4.636;2023-07-08T15:13:19;30.30;99.90
32536;DHT22;18974;50.838;4.636;2023-07-08T15:15:45;30.20;99.90
32536;DHT22;18974;50.838;4.636;2023-07-08T15:18:16;30.10;99.90
32536;DHT22;18974;50.838;4.636;2023-07-08T15:20:42;30.10;99.90
32536;DHT22;18974;50.838;4.636;2023-07-08T15:23:09;30.00;99.90
32536;DHT22;18974;50.838;4.636;2023-07-08T15:25:36;29.90;99.90
32536;DHT22;18974;50.838;4.636;2023-07-08T15:28:04;29.80;99.90
32536;DHT22;18974;50.838;4.636;2023-07-08T15:30:30;29.70;99.90
32536;DHT22;18974;50.838;4.636;2023-07-08T15:32:56;29.60;99.90
32536;DHT22;18974;50.838;4.636;2023-07-08T15:35:27;29.60;99.90
32536;DHT22;18974;50.838;4.636;2023-07-08T15:37:58;29.60;99.90
32536;DHT22;18974;50.838;4.636;2023-07-08T15:40:25;29.60;99.90
32536;DHT22;18974;50.838;4.636;2023-07-08T15:42:54;29.50;99.90
32536;DHT22;18974;50.838;4.636;2023-07-08T15:45:26;29.60;99.90
32536;DHT22;18974;50.838;4.636;2023-07-08T15:47:53;29.60;99.90
32536;DHT22;18974;50.838;4.636;2023-07-08T15:50:25;29.60;99.90
32536;DHT22;18974;50.838;4.636;2023-07-08T15:52:52;29.70;99.90
32536;DHT22;18974;50.838;4.636;2023-07-08T15:55:27;29.70;99.90
32536;DHT22;18974;50.838;4.636;2023-07-08T15:57:56;29.80;99.90
32536;DHT22;18974;50.838;4.636;2023-07-08T16:00:26;29.80;99.90
32536;DHT22;18974;50.838;4.636;2023-07-08T16:02:58;29.90;99.90
32536;DHT22;18974;50.838;4.636;2023-07-08T16:05:25;29.80;99.90
32536;DHT22;18974;50.838;4.636;2023-07-08T16:07:52;29.90;99.90
32536;DHT22;18974;50.838;4.636;2023-07-08T16:10:18;30.10;99.90
32536;DHT22;18974;50.838;4.636;2023-07-08T16:12:45;30.10;99.90
32536;DHT22;18974;50.838;4.636;2023-07-08T16:15:17;30.10;99.90
32536;DHT22;18974;50.838;4.636;2023-07-08T16:17:43;30.20;99.90
32536;DHT22;18974;50.838;4.636;2023-07-08T16:20:16;30.20;99.90
32536;DHT22;18974;50.838;4.636;2023-07-08T16:22:42;30.30;99.90
32536;DHT22;18974;50.838;4.636;2023-07-08T16:25:12;30.40;99.90
32536;DHT22;18974;50.838;4.636;2023-07-08T16:27:38;30.30;99.90
32536;DHT22;18974;50.838;4.636;2023-07-08T16:30:05;30.30;99.90
32536;DHT22;18974;50.838;4.636;2023-07-08T16:32:31;30.30;99.90
32536;DHT22;18974;50.838;4.636;2023-07-08T16:34:56;30.30;99.90